createdAt,value
2018-02-18T00:00:41.898Z,0.00
2018-02-18T00:01:41.117Z,0.00
2018-02-18T00:02:41.033Z,0.00
2018-02-18T00:03:41.131Z,0.00
2018-02-18T00:04:40.970Z,0.00
2018-02-18T00:05:40.921Z,0.00
2018-02-18T00:06:40.864Z,0.00
2018-02-18T00:07:40.866Z,0.00
2018-02-18T00:08:40.910Z,0.00
2018-02-18T00:09:40.845Z,0.00
2018-02-18T00:10:40.885Z,0.00
2018-02-18T00:11:40.747Z,0.00
2018-02-18T00:12:40.784Z,0.00
2018-02-18T00:13:40.747Z,0.00
2018-02-18T00:14:40.761Z,0.00
2018-02-18T00:15:40.641Z,0.00
2018-02-18T00:16:40.636Z,0.00
2018-02-18T00:17:41.480Z,0.00
2018-02-18T00:18:41.544Z,0.00
2018-02-18T00:19:40.515Z,0.00
2018-02-18T00:20:40.441Z,0.00
2018-02-18T00:21:41.013Z,0.00
2018-02-18T00:22:40.389Z,0.00
2018-02-18T00:23:40.391Z,0.00
2018-02-18T00:24:40.469Z,0.00
2018-02-18T00:25:40.387Z,0.00
2018-02-18T00:26:40.310Z,0.00
2018-02-18T00:27:40.337Z,0.00
2018-02-18T00:28:41.017Z,0.00
2018-02-18T00:29:40.420Z,0.00
2018-02-18T00:30:40.155Z,0.00
2018-02-18T00:31:40.151Z,0.00
2018-02-18T00:32:40.137Z,0.00
2018-02-18T00:33:40.052Z,0.00
2018-02-18T00:34:40.032Z,0.00
2018-02-18T00:35:40.046Z,0.00
2018-02-18T00:36:39.958Z,0.00
2018-02-18T00:37:39.930Z,0.00
2018-02-18T00:38:39.901Z,0.00
2018-02-18T00:39:39.865Z,0.00
2018-02-18T00:40:39.835Z,0.00
2018-02-18T00:41:39.876Z,0.00
2018-02-18T00:42:39.791Z,0.00
2018-02-18T00:43:39.742Z,0.00
2018-02-18T00:44:39.718Z,0.00
2018-02-18T00:45:39.686Z,0.00
2018-02-18T00:46:39.650Z,0.00
2018-02-18T00:47:39.663Z,0.00
2018-02-18T00:48:39.595Z,0.00
2018-02-18T00:49:39.564Z,0.00
2018-02-18T00:50:39.582Z,0.00
2018-02-18T00:51:39.513Z,0.00
2018-02-18T00:52:39.475Z,0.00
2018-02-18T00:53:39.443Z,0.00
2018-02-18T00:54:39.431Z,0.00
2018-02-18T00:55:39.409Z,0.00
2018-02-18T00:56:39.346Z,0.00
2018-02-18T00:57:39.322Z,0.00
2018-02-18T00:58:39.308Z,0.00
2018-02-18T00:59:39.257Z,0.00
2018-02-18T01:00:39.288Z,0.00
2018-02-18T01:01:39.195Z,0.00
2018-02-18T01:02:39.161Z,0.00
2018-02-18T01:03:39.139Z,0.00
2018-02-18T01:04:39.105Z,0.00
2018-02-18T01:05:39.104Z,0.00
2018-02-18T01:06:39.053Z,0.00
2018-02-18T01:07:39.034Z,0.00
2018-02-18T01:08:38.987Z,0.00
2018-02-18T01:09:38.958Z,0.00
2018-02-18T01:10:38.950Z,0.00
2018-02-18T01:11:38.898Z,0.00
2018-02-18T01:12:38.867Z,0.00
2018-02-18T01:13:38.832Z,0.00
2018-02-18T01:14:38.812Z,0.00
2018-02-18T01:15:38.808Z,0.00
2018-02-18T01:16:38.741Z,0.00
2018-02-18T01:17:38.716Z,0.00
2018-02-18T01:18:38.683Z,0.00
2018-02-18T01:19:38.648Z,0.00
2018-02-18T01:20:38.655Z,0.00
2018-02-18T01:21:38.603Z,0.00
2018-02-18T01:22:38.562Z,0.00
2018-02-18T01:23:38.531Z,0.00
2018-02-18T01:24:38.498Z,0.00
2018-02-18T01:25:38.498Z,0.00
2018-02-18T01:26:38.441Z,0.00
2018-02-18T01:27:38.409Z,0.00
2018-02-18T01:28:38.381Z,0.00
2018-02-18T01:29:38.345Z,0.00
2018-02-18T01:30:38.349Z,0.00
2018-02-18T01:31:38.294Z,0.00
2018-02-18T01:32:38.285Z,0.00
2018-02-18T01:33:38.233Z,0.00
2018-02-18T01:34:38.200Z,0.00
2018-02-18T01:35:38.191Z,0.00
2018-02-18T01:36:38.137Z,0.00
2018-02-18T01:37:38.113Z,0.00
2018-02-18T01:38:38.075Z,0.00
2018-02-18T01:39:38.056Z,0.00
2018-02-18T01:40:38.048Z,0.00
2018-02-18T01:41:37.979Z,0.00
2018-02-18T01:42:37.954Z,0.00
2018-02-18T01:43:37.925Z,0.00
2018-02-18T01:44:37.894Z,0.00
2018-02-18T01:45:37.892Z,0.00
2018-02-18T01:46:37.861Z,0.00
2018-02-18T01:47:37.808Z,0.00
2018-02-18T01:48:37.774Z,0.00
2018-02-18T01:49:37.745Z,0.00
2018-02-18T01:50:37.743Z,0.00
2018-02-18T01:51:37.708Z,0.00
2018-02-18T01:52:37.660Z,0.00
2018-02-18T01:53:37.621Z,0.00
2018-02-18T01:54:37.595Z,0.00
2018-02-18T01:55:37.559Z,0.00
2018-02-18T01:56:37.586Z,0.00
2018-02-18T01:57:37.501Z,0.00
2018-02-18T01:58:37.479Z,0.00
2018-02-18T01:59:37.442Z,0.00
2018-02-18T02:00:37.411Z,0.00
2018-02-18T02:01:37.413Z,0.00
2018-02-18T02:02:37.346Z,0.00
2018-02-18T02:03:37.315Z,0.00
2018-02-18T02:04:37.285Z,0.00
2018-02-18T02:05:37.261Z,0.00
2018-02-18T02:06:37.232Z,0.00
2018-02-18T02:07:37.237Z,0.00
2018-02-18T02:08:37.164Z,0.00
2018-02-18T02:09:37.143Z,0.00
2018-02-18T02:10:37.115Z,0.00
2018-02-18T02:11:37.093Z,0.00
2018-02-18T02:12:37.052Z,0.00
2018-02-18T02:13:37.041Z,0.00
2018-02-18T02:14:36.980Z,0.00
2018-02-18T02:15:36.952Z,0.00
2018-02-18T02:16:36.926Z,0.00
2018-02-18T02:17:36.891Z,0.00
2018-02-18T02:18:36.911Z,0.00
2018-02-18T02:19:36.871Z,0.00
2018-02-18T02:20:36.805Z,0.00
2018-02-18T02:21:36.776Z,0.00
2018-02-18T02:22:36.750Z,0.00
2018-02-18T02:23:36.714Z,0.00
2018-02-18T02:24:36.723Z,0.00
2018-02-18T02:25:36.652Z,0.00
2018-02-18T02:26:36.616Z,0.00
2018-02-18T02:27:36.586Z,0.00
2018-02-18T02:28:36.557Z,0.00
2018-02-18T02:29:36.532Z,0.00
2018-02-18T02:30:36.522Z,0.00
2018-02-18T02:31:36.469Z,0.00
2018-02-18T02:32:36.447Z,0.00
2018-02-18T02:33:36.404Z,0.00
2018-02-18T02:34:36.378Z,0.00
2018-02-18T02:35:36.384Z,0.00
2018-02-18T02:36:36.316Z,0.00
2018-02-18T02:37:36.285Z,0.00
2018-02-18T02:38:36.258Z,0.00
2018-02-18T02:39:36.234Z,0.00
2018-02-18T02:40:36.199Z,0.00
2018-02-18T02:41:36.200Z,0.00
2018-02-18T02:42:36.134Z,0.00
2018-02-18T02:43:36.104Z,0.00
2018-02-18T02:44:36.092Z,0.00
2018-02-18T02:45:36.045Z,0.00
2018-02-18T02:46:36.015Z,0.00
2018-02-18T02:47:36.016Z,0.00
2018-02-18T02:48:35.950Z,0.00
2018-02-18T02:49:35.925Z,0.00
2018-02-18T02:50:35.926Z,0.00
2018-02-18T02:51:35.866Z,0.00
2018-02-18T02:52:35.845Z,0.00
2018-02-18T02:53:35.796Z,0.00
2018-02-18T02:54:35.769Z,0.00
2018-02-18T02:55:35.765Z,0.00
2018-02-18T02:56:35.707Z,0.00
2018-02-18T02:57:35.679Z,0.00
2018-02-18T02:58:35.660Z,0.00
2018-02-18T02:59:35.624Z,0.00
2018-02-18T03:00:35.609Z,0.00
2018-02-18T03:01:35.554Z,0.00
2018-02-18T03:02:35.522Z,0.00
2018-02-18T03:03:35.495Z,0.00
2018-02-18T03:04:35.467Z,0.00
2018-02-18T03:05:35.464Z,0.00
2018-02-18T03:06:35.404Z,0.00
2018-02-18T03:07:35.374Z,0.00
2018-02-18T03:08:35.340Z,0.00
2018-02-18T03:09:35.312Z,0.00
2018-02-18T03:10:35.353Z,0.00
2018-02-18T03:11:35.259Z,0.00
2018-02-18T03:12:35.225Z,0.00
2018-02-18T03:13:35.221Z,0.00
2018-02-18T03:14:35.177Z,0.00
2018-02-18T03:15:35.176Z,0.00
2018-02-18T03:16:35.102Z,0.00
2018-02-18T03:17:35.069Z,0.00
2018-02-18T03:18:35.042Z,0.00
2018-02-18T03:19:35.009Z,0.00
2018-02-18T03:20:35.010Z,0.00
2018-02-18T03:21:34.946Z,0.00
2018-02-18T03:22:34.915Z,0.00
2018-02-18T03:23:34.933Z,0.00
2018-02-18T03:24:34.857Z,0.00
2018-02-18T03:25:34.855Z,0.00
2018-02-18T03:26:34.796Z,0.00
2018-02-18T03:27:34.761Z,0.00
2018-02-18T03:28:34.734Z,0.00
2018-02-18T03:29:34.730Z,0.00
2018-02-18T03:30:34.718Z,0.00
2018-02-18T03:31:34.651Z,0.00
2018-02-18T03:32:34.611Z,0.00
2018-02-18T03:33:34.583Z,0.00
2018-02-18T03:34:34.552Z,0.00
2018-02-18T03:35:34.557Z,0.00
2018-02-18T03:36:34.495Z,0.00
2018-02-18T03:37:34.460Z,0.00
2018-02-18T03:38:34.426Z,0.00
2018-02-18T03:39:34.396Z,0.00
2018-02-18T03:40:34.392Z,0.00
2018-02-18T03:41:34.332Z,0.00
2018-02-18T03:42:34.304Z,0.00
2018-02-18T03:43:34.278Z,0.00
2018-02-18T03:44:34.246Z,0.00
2018-02-18T03:45:34.239Z,0.00
2018-02-18T03:46:34.192Z,0.00
2018-02-18T03:47:34.158Z,0.00
2018-02-18T03:48:34.137Z,0.00
2018-02-18T03:49:34.095Z,0.00
2018-02-18T03:50:34.091Z,0.00
2018-02-18T03:51:34.031Z,0.00
2018-02-18T03:52:34.037Z,0.00
2018-02-18T03:53:33.967Z,0.00
2018-02-18T03:54:33.945Z,0.00
2018-02-18T03:55:33.916Z,0.00
2018-02-18T03:56:33.878Z,0.00
2018-02-18T03:57:33.853Z,0.00
2018-02-18T03:58:33.844Z,0.00
2018-02-18T03:59:33.790Z,0.00
2018-02-18T04:00:33.764Z,0.00
2018-02-18T04:01:33.725Z,0.00
2018-02-18T04:02:33.698Z,0.00
2018-02-18T04:03:33.713Z,0.00
2018-02-18T04:04:33.635Z,0.00
2018-02-18T04:05:33.601Z,0.00
2018-02-18T04:06:33.577Z,0.00
2018-02-18T04:07:33.543Z,0.00
2018-02-18T04:08:33.519Z,0.00
2018-02-18T04:09:33.512Z,0.00
2018-02-18T04:10:33.449Z,0.00
2018-02-18T04:11:33.421Z,0.00
2018-02-18T04:12:33.397Z,0.00
2018-02-18T04:13:33.392Z,0.00
2018-02-18T04:14:33.332Z,0.00
2018-02-18T04:15:33.327Z,0.00
2018-02-18T04:16:33.267Z,0.00
2018-02-18T04:17:33.236Z,0.00
2018-02-18T04:18:33.207Z,0.00
2018-02-18T04:19:33.202Z,0.00
2018-02-18T04:20:33.144Z,0.00
2018-02-18T04:21:33.114Z,0.00
2018-02-18T04:22:33.081Z,0.00
2018-02-18T04:23:33.090Z,0.00
2018-02-18T04:24:33.023Z,0.00
2018-02-18T04:25:32.998Z,0.00
2018-02-18T04:26:32.967Z,0.00
2018-02-18T04:27:32.930Z,0.00
2018-02-18T04:28:32.900Z,0.00
2018-02-18T04:29:32.893Z,0.00
2018-02-18T04:30:32.841Z,0.00
2018-02-18T04:31:32.815Z,0.00
2018-02-18T04:32:33.498Z,0.00
2018-02-18T04:33:32.779Z,0.00
2018-02-18T04:34:32.747Z,0.00
2018-02-18T04:35:32.691Z,0.00
2018-02-18T04:36:32.659Z,0.00
2018-02-18T04:37:32.629Z,0.00
2018-02-18T04:38:32.596Z,0.00
2018-02-18T04:39:32.612Z,0.00
2018-02-18T04:40:32.600Z,0.00
2018-02-18T04:41:32.514Z,0.00
2018-02-18T04:42:32.502Z,0.00
2018-02-18T04:43:32.449Z,0.00
2018-02-18T04:44:32.449Z,0.00
2018-02-18T04:45:32.392Z,0.00
2018-02-18T04:46:32.352Z,0.00
2018-02-18T04:47:32.322Z,0.00
2018-02-18T04:48:32.300Z,0.00
2018-02-18T04:49:32.300Z,0.00
2018-02-18T04:50:32.268Z,0.00
2018-02-18T04:51:32.200Z,0.00
2018-02-18T04:52:32.169Z,0.00
2018-02-18T04:53:32.149Z,0.00
2018-02-18T04:54:32.108Z,0.00
2018-02-18T04:55:32.127Z,0.00
2018-02-18T04:56:32.054Z,0.00
2018-02-18T04:57:32.014Z,0.00
2018-02-18T04:58:31.986Z,0.00
2018-02-18T04:59:31.996Z,0.00
2018-02-18T05:00:31.923Z,0.00
2018-02-18T05:01:31.901Z,0.00
2018-02-18T05:02:31.867Z,0.00
2018-02-18T05:03:31.830Z,0.00
2018-02-18T05:04:31.805Z,0.00
2018-02-18T05:05:31.794Z,0.00
2018-02-18T05:06:31.741Z,0.00
2018-02-18T05:07:31.709Z,0.00
2018-02-18T05:08:31.681Z,0.00
2018-02-18T05:09:31.687Z,0.00
2018-02-18T05:10:31.627Z,0.00
2018-02-18T05:11:31.665Z,0.00
2018-02-18T05:12:31.559Z,0.00
2018-02-18T05:13:31.530Z,0.00
2018-02-18T05:14:32.344Z,0.00
2018-02-18T05:15:31.501Z,0.00
2018-02-18T05:16:31.435Z,0.00
2018-02-18T05:17:31.402Z,0.00
2018-02-18T05:18:31.375Z,0.00
2018-02-18T05:19:31.379Z,0.00
2018-02-18T05:20:31.322Z,0.00
2018-02-18T05:21:31.280Z,0.00
2018-02-18T05:22:31.249Z,0.00
2018-02-18T05:23:31.227Z,0.00
2018-02-18T05:24:31.195Z,0.00
2018-02-18T05:25:31.194Z,0.00
2018-02-18T05:26:31.126Z,0.00
2018-02-18T05:27:31.095Z,0.00
2018-02-18T05:28:31.066Z,0.00
2018-02-18T05:29:31.073Z,0.00
2018-02-18T05:30:31.011Z,0.00
2018-02-18T05:31:30.979Z,0.00
2018-02-18T05:32:30.944Z,0.00
2018-02-18T05:33:30.908Z,0.00
2018-02-18T05:34:30.885Z,0.00
2018-02-18T05:35:30.885Z,0.00
2018-02-18T05:36:30.821Z,0.00
2018-02-18T05:37:30.788Z,0.00
2018-02-18T05:38:30.758Z,0.00
2018-02-18T05:39:30.764Z,0.00
2018-02-18T05:40:30.703Z,0.00
2018-02-18T05:41:30.669Z,0.00
2018-02-18T05:42:30.636Z,0.00
2018-02-18T05:43:30.625Z,0.00
2018-02-18T05:44:30.580Z,0.00
2018-02-18T05:45:30.575Z,0.00
2018-02-18T05:46:30.512Z,0.00
2018-02-18T05:47:30.488Z,0.00
2018-02-18T05:48:30.452Z,0.00
2018-02-18T05:49:30.464Z,0.00
2018-02-18T05:50:30.392Z,0.00
2018-02-18T05:51:30.365Z,0.00
2018-02-18T05:52:30.335Z,4.00
2018-02-18T05:53:30.303Z,4.00
2018-02-18T05:54:30.268Z,0.00
2018-02-18T05:55:30.282Z,4.00
2018-02-18T05:56:30.235Z,4.00
2018-02-18T05:57:30.178Z,4.00
2018-02-18T05:58:30.146Z,4.00
2018-02-18T05:59:30.113Z,4.00
2018-02-18T06:00:30.086Z,4.00
2018-02-18T06:01:30.089Z,8.00
2018-02-18T06:02:30.045Z,8.00
2018-02-18T06:03:29.994Z,8.00
2018-02-18T06:04:29.962Z,8.00
2018-02-18T06:05:29.937Z,8.00
2018-02-18T06:06:29.944Z,16.00
2018-02-18T06:07:29.887Z,16.00
2018-02-18T06:08:29.853Z,16.00
2018-02-18T06:09:29.816Z,20.00
2018-02-18T06:10:29.778Z,24.00
2018-02-18T06:11:29.747Z,24.00
2018-02-18T06:12:29.760Z,28.00
2018-02-18T06:13:29.699Z,32.00
2018-02-18T06:14:29.659Z,36.00
2018-02-18T06:15:29.625Z,40.00
2018-02-18T06:16:29.596Z,44.00
2018-02-18T06:17:29.618Z,48.00
2018-02-18T06:18:29.597Z,56.00
2018-02-18T06:19:29.504Z,60.00
2018-02-18T06:20:29.500Z,64.00
2018-02-18T06:21:29.457Z,68.00
2018-02-18T06:22:29.415Z,72.00
2018-02-18T06:23:29.390Z,80.00
2018-02-18T06:24:29.353Z,88.00
2018-02-18T06:25:29.350Z,100.00
2018-02-18T06:26:29.295Z,104.00
2018-02-18T06:27:29.265Z,112.00
2018-02-18T06:28:29.238Z,124.00
2018-02-18T06:29:29.197Z,128.00
2018-02-18T06:30:29.188Z,136.00
2018-02-18T06:31:29.145Z,144.00
2018-02-18T06:32:29.108Z,152.00
2018-02-18T06:33:29.073Z,164.00
2018-02-18T06:34:29.052Z,176.00
2018-02-18T06:35:29.041Z,184.00
2018-02-18T06:36:28.986Z,196.00
2018-02-18T06:37:28.953Z,204.00
2018-02-18T06:38:28.934Z,216.00
2018-02-18T06:39:28.892Z,224.00
2018-02-18T06:40:28.896Z,240.00
2018-02-18T06:41:28.827Z,248.00
2018-02-18T06:42:28.797Z,264.00
2018-02-18T06:43:28.775Z,276.00
2018-02-18T06:44:28.742Z,292.00
2018-02-18T06:45:28.744Z,300.00
2018-02-18T06:46:28.686Z,316.00
2018-02-18T06:47:28.644Z,324.00
2018-02-18T06:48:28.617Z,332.00
2018-02-18T06:49:28.583Z,344.00
2018-02-18T06:50:28.559Z,352.00
2018-02-18T06:51:28.550Z,368.00
2018-02-18T06:52:28.498Z,380.00
2018-02-18T06:53:28.463Z,396.00
2018-02-18T06:54:28.753Z,408.00
2018-02-18T06:55:28.430Z,424.00
2018-02-18T06:56:28.387Z,440.00
2018-02-18T06:57:28.343Z,460.00
2018-02-18T06:58:28.309Z,480.00
2018-02-18T06:59:28.275Z,496.00
2018-02-18T07:00:28.274Z,516.00
2018-02-18T07:01:28.214Z,528.00
2018-02-18T07:02:28.191Z,548.00
2018-02-18T07:03:28.163Z,564.00
2018-02-18T07:04:28.133Z,584.00
2018-02-18T07:05:28.168Z,600.00
2018-02-18T07:06:28.070Z,616.00
2018-02-18T07:07:28.035Z,640.00
2018-02-18T07:08:28.004Z,656.00
2018-02-18T07:09:27.977Z,676.00
2018-02-18T07:10:27.976Z,696.00
2018-02-18T07:11:27.914Z,712.00
2018-02-18T07:12:27.881Z,732.00
2018-02-18T07:13:27.849Z,752.00
2018-02-18T07:14:27.826Z,768.00
2018-02-18T07:15:27.820Z,792.00
2018-02-18T07:16:27.759Z,820.00
2018-02-18T07:17:27.735Z,844.00
2018-02-18T07:18:27.697Z,868.00
2018-02-18T07:19:27.675Z,896.00
2018-02-18T07:20:27.660Z,920.00
2018-02-18T07:21:29.505Z,936.00
2018-02-18T07:22:27.582Z,952.00
2018-02-18T07:23:27.544Z,964.00
2018-02-18T07:24:27.547Z,980.00
2018-02-18T07:25:27.509Z,996.00
2018-02-18T07:26:27.457Z,1024.00
2018-02-18T07:27:27.428Z,1048.00
2018-02-18T07:28:27.393Z,1080.00
2018-02-18T07:29:27.362Z,1104.00
2018-02-18T07:30:27.359Z,1128.00
2018-02-18T07:31:27.311Z,1156.00
2018-02-18T07:32:27.271Z,1188.00
2018-02-18T07:33:27.241Z,1224.00
2018-02-18T07:34:27.548Z,1260.00
2018-02-18T07:35:27.179Z,1292.00
2018-02-18T07:36:27.150Z,1324.00
2018-02-18T07:37:27.119Z,1348.00
2018-02-18T07:38:27.092Z,1372.00
2018-02-18T07:39:27.094Z,1404.00
2018-02-18T07:40:27.059Z,1432.00
2018-02-18T07:41:27.005Z,1464.00
2018-02-18T07:42:27.002Z,1496.00
2018-02-18T07:43:26.934Z,1532.00
2018-02-18T07:44:26.982Z,1572.00
2018-02-18T07:45:26.923Z,1620.00
2018-02-18T07:46:26.902Z,1668.00
2018-02-18T07:47:26.818Z,1708.00
2018-02-18T07:48:26.786Z,1744.00
2018-02-18T07:49:26.758Z,1776.00
2018-02-18T07:50:26.818Z,1812.00
2018-02-18T07:51:26.727Z,1860.00
2018-02-18T07:52:26.760Z,1904.00
2018-02-18T07:53:26.638Z,1932.00
2018-02-18T07:54:26.629Z,1948.00
2018-02-18T07:55:26.600Z,1968.00
2018-02-18T07:56:26.545Z,1980.00
2018-02-18T07:57:26.520Z,1984.00
2018-02-18T07:58:26.487Z,1984.00
2018-02-18T07:59:26.458Z,1996.00
2018-02-18T08:00:26.455Z,2020.00
2018-02-18T08:01:26.403Z,2064.00
2018-02-18T08:02:26.364Z,2116.00
2018-02-18T08:03:26.332Z,2180.00
2018-02-18T08:04:26.299Z,2248.00
2018-02-18T08:05:26.298Z,2308.00
2018-02-18T08:06:26.245Z,2340.00
2018-02-18T08:07:26.228Z,2368.00
2018-02-18T08:08:26.184Z,2384.00
2018-02-18T08:09:26.162Z,2376.00
2018-02-18T08:10:26.151Z,2384.00
2018-02-18T08:11:26.119Z,2404.00
2018-02-18T08:12:26.060Z,2416.00
2018-02-18T08:13:26.035Z,2436.00
2018-02-18T08:14:26.000Z,2460.00
2018-02-18T08:15:26.014Z,2484.00
2018-02-18T08:16:25.950Z,2512.00
2018-02-18T08:17:25.912Z,2536.00
2018-02-18T08:18:25.895Z,2552.00
2018-02-18T08:19:25.850Z,2564.00
2018-02-18T08:20:25.859Z,2568.00
2018-02-18T08:21:25.866Z,2568.00
2018-02-18T08:22:25.772Z,2580.00
2018-02-18T08:23:25.754Z,2584.00
2018-02-18T08:24:25.716Z,2596.00
2018-02-18T08:25:25.702Z,2616.00
2018-02-18T08:26:25.646Z,2652.00
2018-02-18T08:27:25.619Z,2688.00
2018-02-18T08:28:25.582Z,2728.00
2018-02-18T08:29:25.556Z,2744.00
2018-02-18T08:30:25.557Z,2756.00
2018-02-18T08:31:25.496Z,2768.00
2018-02-18T08:32:25.473Z,2776.00
2018-02-18T08:33:25.445Z,2796.00
2018-02-18T08:34:25.406Z,2820.00
2018-02-18T08:35:25.437Z,2848.00
2018-02-18T08:36:25.355Z,2868.00
2018-02-18T08:37:25.329Z,2876.00
2018-02-18T08:38:25.287Z,2884.00
2018-02-18T08:39:25.261Z,2892.00
2018-02-18T08:40:25.255Z,2908.00
2018-02-18T08:41:25.202Z,2936.00
2018-02-18T08:42:25.171Z,2968.00
2018-02-18T08:43:25.141Z,3000.00
2018-02-18T08:44:25.116Z,3028.00
2018-02-18T08:45:25.128Z,3060.00
2018-02-18T08:46:25.054Z,3088.00
2018-02-18T08:47:25.096Z,3116.00
2018-02-18T08:48:24.998Z,3136.00
2018-02-18T08:49:24.965Z,3140.00
2018-02-18T08:50:24.957Z,3148.00
2018-02-18T08:51:24.918Z,3168.00
2018-02-18T08:52:24.877Z,3184.00
2018-02-18T08:53:24.845Z,3200.00
2018-02-18T08:54:24.814Z,3220.00
2018-02-18T08:55:24.844Z,3236.00
2018-02-18T08:56:24.758Z,3252.00
2018-02-18T08:57:24.751Z,3260.00
2018-02-18T08:58:24.694Z,3284.00
2018-02-18T08:59:24.666Z,3320.00
2018-02-18T09:00:24.665Z,3360.00
2018-02-18T09:01:24.624Z,3400.00
2018-02-18T09:02:24.580Z,3436.00
2018-02-18T09:03:24.538Z,3480.00
2018-02-18T09:04:24.514Z,3528.00
2018-02-18T09:05:24.516Z,3568.00
2018-02-18T09:06:24.453Z,3596.00
2018-02-18T09:07:24.423Z,3628.00
2018-02-18T09:08:24.499Z,3656.00
2018-02-18T09:09:24.541Z,3704.00
2018-02-18T09:10:24.373Z,3760.00
2018-02-18T09:11:25.604Z,3816.00
2018-02-18T09:12:24.281Z,3848.00
2018-02-18T09:13:24.398Z,3876.00
2018-02-18T09:14:24.987Z,3904.00
2018-02-18T09:15:24.263Z,3920.00
2018-02-18T09:16:24.932Z,3944.00
2018-02-18T09:17:24.233Z,3968.00
2018-02-18T09:18:25.025Z,4004.00
2018-02-18T09:19:24.200Z,4044.00
2018-02-18T09:20:24.423Z,4092.00
2018-02-18T09:21:24.052Z,4152.00
2018-02-18T09:22:23.983Z,4220.00
2018-02-18T09:23:24.487Z,4292.00
2018-02-18T09:24:24.483Z,4348.00
2018-02-18T09:25:24.667Z,4400.00
2018-02-18T09:26:23.862Z,4452.00
2018-02-18T09:27:23.833Z,4500.00
2018-02-18T09:28:23.801Z,4560.00
2018-02-18T09:29:23.770Z,4628.00
2018-02-18T09:30:23.769Z,4688.00
2018-02-18T09:31:23.744Z,4728.00
2018-02-18T09:32:23.684Z,4752.00
2018-02-18T09:33:23.651Z,4760.00
2018-02-18T09:34:23.630Z,4768.00
2018-02-18T09:35:23.615Z,4776.00
2018-02-18T09:36:23.577Z,4772.00
2018-02-18T09:37:23.537Z,4764.00
2018-02-18T09:38:23.596Z,4760.00
2018-02-18T09:39:24.449Z,4772.00
2018-02-18T09:40:23.440Z,4788.00
2018-02-18T09:41:23.416Z,4812.00
2018-02-18T09:42:23.388Z,4832.00
2018-02-18T09:43:23.360Z,4848.00
2018-02-18T09:44:23.350Z,4852.00
2018-02-18T09:45:23.294Z,4844.00
2018-02-18T09:46:23.266Z,4852.00
2018-02-18T09:47:23.241Z,4860.00
2018-02-18T09:48:23.233Z,4880.00
2018-02-18T09:49:23.203Z,4900.00
2018-02-18T09:50:23.149Z,4912.00
2018-02-18T09:51:23.117Z,4920.00
2018-02-18T09:52:23.100Z,4928.00
2018-02-18T09:53:23.058Z,4940.00
2018-02-18T09:54:23.056Z,4944.00
2018-02-18T09:55:22.997Z,4936.00
2018-02-18T09:56:22.965Z,4900.00
2018-02-18T09:57:22.953Z,4856.00
2018-02-18T09:58:22.913Z,4832.00
2018-02-18T09:59:22.914Z,4824.00
2018-02-18T10:00:22.846Z,4832.00
2018-02-18T10:01:22.818Z,4844.00
2018-02-18T10:02:22.787Z,4864.00
2018-02-18T10:03:22.810Z,4868.00
2018-02-18T10:04:22.768Z,4860.00
2018-02-18T10:05:22.700Z,4848.00
2018-02-18T10:06:22.675Z,4832.00
2018-02-18T10:07:22.641Z,4820.00
2018-02-18T10:08:22.625Z,4812.00
2018-02-18T10:09:22.613Z,4808.00
2018-02-18T10:10:22.565Z,4824.00
2018-02-18T10:11:22.523Z,4844.00
2018-02-18T10:12:22.497Z,4864.00
2018-02-18T10:13:22.486Z,4872.00
2018-02-18T10:14:22.549Z,4868.00
2018-02-18T10:15:22.413Z,4868.00
2018-02-18T10:16:22.407Z,4864.00
2018-02-18T10:17:22.353Z,4852.00
2018-02-18T10:18:22.342Z,4832.00
2018-02-18T10:19:22.322Z,4824.00
2018-02-18T10:20:22.261Z,4824.00
2018-02-18T10:21:22.260Z,4836.00
2018-02-18T10:22:22.201Z,4848.00
2018-02-18T10:23:22.172Z,4868.00
2018-02-18T10:24:22.181Z,4876.00
2018-02-18T10:25:22.168Z,4856.00
2018-02-18T10:26:22.088Z,4832.00
2018-02-18T10:27:22.055Z,4812.00
2018-02-18T10:28:22.099Z,4800.00
2018-02-18T10:29:22.042Z,4804.00
2018-02-18T10:30:22.008Z,4808.00
2018-02-18T10:31:23.054Z,4808.00
2018-02-18T10:32:21.910Z,4808.00
2018-02-18T10:33:21.904Z,4800.00
2018-02-18T10:34:21.853Z,4796.00
2018-02-18T10:35:21.856Z,4796.00
2018-02-18T10:36:21.792Z,4796.00
2018-02-18T10:37:21.812Z,4788.00
2018-02-18T10:38:21.763Z,4796.00
2018-02-18T10:39:21.707Z,4812.00
2018-02-18T10:40:22.075Z,4820.00
2018-02-18T10:41:22.489Z,4828.00
2018-02-18T10:42:21.620Z,4848.00
2018-02-18T10:43:21.609Z,4880.00
2018-02-18T10:44:21.555Z,4920.00
2018-02-18T10:45:23.071Z,4948.00
2018-02-18T10:46:21.500Z,4968.00
2018-02-18T10:47:21.513Z,4988.00
2018-02-18T10:48:21.939Z,5004.00
2018-02-18T10:49:21.422Z,5016.00
2018-02-18T10:50:21.414Z,5012.00
2018-02-18T10:51:21.369Z,5012.00
2018-02-18T10:52:21.382Z,5016.00
2018-02-18T10:53:21.292Z,5036.00
2018-02-18T10:54:21.293Z,5060.00
2018-02-18T10:55:21.235Z,5092.00
2018-02-18T10:56:21.209Z,5108.00
2018-02-18T10:57:21.177Z,5112.00
2018-02-18T10:58:21.150Z,5108.00
2018-02-18T10:59:21.164Z,5092.00
2018-02-18T11:00:21.094Z,5068.00
2018-02-18T11:01:21.063Z,5056.00
2018-02-18T11:02:21.060Z,5060.00
2018-02-18T11:03:21.001Z,5080.00
2018-02-18T11:04:21.005Z,5100.00
2018-02-18T11:05:20.941Z,5108.00
2018-02-18T11:06:23.440Z,5112.00
2018-02-18T11:07:21.008Z,5140.00
2018-02-18T11:08:20.856Z,5176.00
2018-02-18T11:09:20.846Z,5236.00
2018-02-18T11:10:21.441Z,5292.00
2018-02-18T11:11:20.773Z,5328.00
2018-02-18T11:12:20.741Z,5348.00
2018-02-18T11:13:20.789Z,5364.00
2018-02-18T11:14:20.684Z,5360.00
2018-02-18T11:15:20.681Z,5344.00
2018-02-18T11:16:20.641Z,5352.00
2018-02-18T11:17:20.588Z,5376.00
2018-02-18T11:18:20.558Z,5400.00
2018-02-18T11:19:20.532Z,5436.00
2018-02-18T11:20:20.533Z,5496.00
2018-02-18T11:21:20.477Z,5552.00
2018-02-18T11:22:20.443Z,5612.00
2018-02-18T11:23:20.470Z,5680.00
2018-02-18T11:24:20.978Z,5724.00
2018-02-18T11:25:21.445Z,5764.00
2018-02-18T11:26:20.455Z,5784.00
2018-02-18T11:27:20.944Z,5784.00
2018-02-18T11:28:20.286Z,5748.00
2018-02-18T11:29:20.264Z,5712.00
2018-02-18T11:30:20.241Z,5692.00
2018-02-18T11:31:21.030Z,5700.00
2018-02-18T11:32:20.153Z,5684.00
2018-02-18T11:33:21.492Z,5656.00
2018-02-18T11:34:20.125Z,5624.00
2018-02-18T11:35:20.118Z,5596.00
2018-02-18T11:36:20.042Z,5576.00
2018-02-18T11:37:20.012Z,5584.00
2018-02-18T11:38:19.995Z,5608.00
2018-02-18T11:39:19.965Z,5636.00
2018-02-18T11:40:19.950Z,5672.00
2018-02-18T11:41:19.894Z,5688.00
2018-02-18T11:42:19.868Z,5704.00
2018-02-18T11:43:20.546Z,5700.00
2018-02-18T11:44:19.817Z,5668.00
2018-02-18T11:45:19.817Z,5616.00
2018-02-18T11:46:19.756Z,5560.00
2018-02-18T11:47:19.728Z,5516.00
2018-02-18T11:48:19.698Z,5476.00
2018-02-18T11:49:19.674Z,5428.00
2018-02-18T11:50:19.688Z,5420.00
2018-02-18T11:51:21.480Z,5432.00
2018-02-18T11:52:19.627Z,5460.00
2018-02-18T11:53:19.584Z,5488.00
2018-02-18T11:54:19.524Z,5508.00
2018-02-18T11:55:19.489Z,5524.00
2018-02-18T11:56:19.459Z,5532.00
2018-02-18T11:57:19.465Z,5532.00
2018-02-18T11:58:20.472Z,5524.00
2018-02-18T11:59:19.382Z,5508.00
2018-02-18T12:00:19.345Z,5468.00
2018-02-18T12:01:19.327Z,5448.00
2018-02-18T12:02:19.282Z,5452.00
2018-02-18T12:03:19.297Z,5456.00
2018-02-18T12:04:19.235Z,5432.00
2018-02-18T12:05:19.992Z,5380.00
2018-02-18T12:06:19.177Z,5304.00
2018-02-18T12:07:19.144Z,5216.00
2018-02-18T12:08:19.202Z,5120.00
2018-02-18T12:09:19.198Z,5036.00
2018-02-18T12:10:19.059Z,4972.00
2018-02-18T12:11:19.021Z,4928.00
2018-02-18T12:12:18.990Z,4900.00
2018-02-18T12:13:18.991Z,4896.00
2018-02-18T12:14:18.940Z,4876.00
2018-02-18T12:15:19.539Z,4872.00
2018-02-18T12:16:18.876Z,4892.00
2018-02-18T12:17:18.856Z,4900.00
2018-02-18T12:18:18.845Z,4912.00
2018-02-18T12:19:18.788Z,4912.00
2018-02-18T12:20:18.762Z,4908.00
2018-02-18T12:21:18.741Z,4888.00
2018-02-18T12:22:18.707Z,4832.00
2018-02-18T12:23:18.726Z,4788.00
2018-02-18T12:24:18.681Z,4768.00
2018-02-18T12:25:18.695Z,4772.00
2018-02-18T12:26:18.619Z,4780.00
2018-02-18T12:27:18.575Z,4800.00
2018-02-18T12:28:18.573Z,4852.00
2018-02-18T12:29:18.553Z,4904.00
2018-02-18T12:30:18.550Z,4928.00
2018-02-18T12:31:18.556Z,4940.00
2018-02-18T12:32:18.416Z,4948.00
2018-02-18T12:33:19.003Z,4944.00
2018-02-18T12:34:18.406Z,4884.00
2018-02-18T12:35:18.358Z,4808.00
2018-02-18T12:36:18.296Z,4740.00
2018-02-18T12:37:18.269Z,4672.00
2018-02-18T12:38:18.264Z,4584.00
2018-02-18T12:39:19.949Z,4496.00
2018-02-18T12:40:18.218Z,4436.00
2018-02-18T12:41:18.168Z,4408.00
2018-02-18T12:42:18.132Z,4408.00